createdAt,value
2023-03-20T00:02:06.839Z,9.20
2023-03-20T00:04:34.134Z,9.20
2023-03-20T00:07:00.930Z,9.10
2023-03-20T00:09:28.387Z,9.10
2023-03-20T00:11:56.077Z,9.10
2023-03-20T00:14:24.764Z,9.10
2023-03-20T00:16:52.229Z,9.00
2023-03-20T00:19:25.872Z,9.00
2023-03-20T00:21:54.157Z,8.90
2023-03-20T00:24:21.000Z,8.90
2023-03-20T00:26:49.858Z,8.80
2023-03-20T00:29:22.090Z,8.80
2023-03-20T00:31:49.136Z,8.70
2023-03-20T00:34:17.885Z,8.70
2023-03-20T00:36:44.943Z,8.70
2023-03-20T00:39:11.804Z,8.70
2023-03-20T00:41:38.450Z,8.70
2023-03-20T00:44:29.076Z,8.70
2023-03-20T00:46:59.213Z,8.70
2023-03-20T00:49:35.950Z,8.70
2023-03-20T00:52:03.887Z,8.70
2023-03-20T00:54:31.010Z,8.70
2023-03-20T00:57:17.890Z,8.70
2023-03-20T01:00:13.515Z,8.70
2023-03-20T01:02:40.381Z,8.70
2023-03-20T01:05:07.670Z,8.70
2023-03-20T01:07:34.409Z,8.70
2023-03-20T01:10:01.212Z,8.70
2023-03-20T01:12:28.339Z,8.80
2023-03-20T01:14:57.149Z,8.70
2023-03-20T01:17:25.676Z,8.70
2023-03-20T01:19:52.590Z,8.70
2023-03-20T01:22:19.592Z,8.70
2023-03-20T01:24:47.374Z,8.70
2023-03-20T01:27:16.483Z,8.60
2023-03-20T01:29:43.641Z,8.60
2023-03-20T01:32:16.675Z,8.60
2023-03-20T01:34:43.512Z,8.60
2023-03-20T01:37:13.927Z,8.50
2023-03-20T01:39:41.058Z,8.50
2023-03-20T01:42:08.134Z,8.50
2023-03-20T01:44:36.755Z,8.50
2023-03-20T01:47:14.698Z,8.50
2023-03-20T01:50:18.549Z,8.50
2023-03-20T01:52:46.374Z,8.50
2023-03-20T01:55:13.205Z,8.60
2023-03-20T01:57:40.279Z,8.60
2023-03-20T02:00:11.898Z,8.60
2023-03-20T02:02:40.384Z,8.60
2023-03-20T02:05:10.905Z,8.70
2023-03-20T02:07:39.309Z,8.70
2023-03-20T02:10:14.214Z,8.70
2023-03-20T02:12:42.268Z,8.70
2023-03-20T02:15:09.758Z,8.70
2023-03-20T02:17:36.598Z,8.70
2023-03-20T02:20:22.622Z,8.70
2023-03-20T02:23:10.395Z,8.70
2023-03-20T02:25:37.671Z,8.70
2023-03-20T02:28:28.905Z,8.70
2023-03-20T02:31:24.756Z,8.70
2023-03-20T02:34:17.477Z,8.60
2023-03-20T02:36:44.137Z,8.60
2023-03-20T02:39:19.746Z,8.60
2023-03-20T02:42:05.211Z,8.60
2023-03-20T02:44:46.278Z,8.60
2023-03-20T02:47:26.001Z,8.60
2023-03-20T02:50:14.103Z,8.60
2023-03-20T02:52:47.095Z,8.60
2023-03-20T02:55:22.760Z,8.60
2023-03-20T02:58:14.200Z,8.60
2023-03-20T03:00:50.110Z,8.60
2023-03-20T03:03:22.846Z,8.60
2023-03-20T03:06:04.870Z,8.60
2023-03-20T03:08:37.519Z,8.60
2023-03-20T03:11:08.831Z,8.60
2023-03-20T03:13:40.514Z,8.60
2023-03-20T03:16:11.536Z,8.60
2023-03-20T03:18:41.031Z,8.60
2023-03-20T03:21:09.248Z,8.60
2023-03-20T03:23:43.108Z,8.60
2023-03-20T03:26:22.901Z,8.60
2023-03-20T03:28:54.718Z,8.60
2023-03-20T03:31:21.974Z,8.60
2023-03-20T03:33:52.191Z,8.60
2023-03-20T03:36:46.831Z,8.60
2023-03-20T03:39:32.449Z,8.60
2023-03-20T03:42:31.266Z,8.60
2023-03-20T03:44:57.975Z,8.60
2023-03-20T03:47:39.305Z,8.60
2023-03-20T03:50:20.548Z,8.60
2023-03-20T03:52:50.387Z,8.60
2023-03-20T03:55:25.407Z,8.60
2023-03-20T03:58:03.275Z,8.60
2023-03-20T04:00:32.037Z,8.60
2023-03-20T04:02:58.905Z,8.60
2023-03-20T04:05:31.517Z,8.60
2023-03-20T04:07:59.898Z,8.50
2023-03-20T04:10:26.868Z,8.60
2023-03-20T04:12:53.603Z,8.60
2023-03-20T04:15:21.647Z,8.60
2023-03-20T04:17:48.459Z,8.60
2023-03-20T04:20:16.223Z,8.60
2023-03-20T04:22:42.925Z,8.50
2023-03-20T04:25:15.572Z,8.50
2023-03-20T04:27:42.244Z,8.50
2023-03-20T04:30:10.068Z,8.60
2023-03-20T04:32:36.761Z,8.60
2023-03-20T04:35:03.622Z,8.60
2023-03-20T04:37:30.555Z,8.60
2023-03-20T04:39:57.382Z,8.60
2023-03-20T04:42:24.086Z,8.60
2023-03-20T04:44:50.796Z,8.60
2023-03-20T04:47:17.572Z,8.60
2023-03-20T04:49:44.341Z,8.60
2023-03-20T04:52:11.227Z,8.60
2023-03-20T04:54:37.988Z,8.60
2023-03-20T04:57:04.721Z,8.60
2023-03-20T04:59:31.501Z,8.60
2023-03-20T05:01:58.214Z,8.60
2023-03-20T05:04:24.973Z,8.60
2023-03-20T05:06:51.836Z,8.60
2023-03-20T05:09:18.657Z,8.60
2023-03-20T05:11:45.701Z,8.50
2023-03-20T05:14:12.425Z,8.50
2023-03-20T05:16:39.751Z,8.50
2023-03-20T05:19:06.637Z,8.50
2023-03-20T05:21:33.621Z,8.50
2023-03-20T05:24:00.401Z,8.60
2023-03-20T05:26:27.163Z,8.60
2023-03-20T05:28:53.960Z,8.60
2023-03-20T05:31:20.850Z,8.60
2023-03-20T05:33:47.600Z,8.60
2023-03-20T05:36:14.362Z,8.60
2023-03-20T05:38:41.444Z,8.50
2023-03-20T05:41:08.334Z,8.60
2023-03-20T05:43:35.072Z,8.60
2023-03-20T05:46:01.859Z,8.60
2023-03-20T05:48:28.547Z,8.60
2023-03-20T05:50:55.318Z,8.60
2023-03-20T05:53:22.098Z,8.60
2023-03-20T05:55:48.834Z,8.60
2023-03-20T05:58:15.640Z,8.60
2023-03-20T06:00:42.371Z,8.60
2023-03-20T06:03:09.209Z,8.60
2023-03-20T06:05:36.596Z,8.60
2023-03-20T06:08:04.368Z,8.60
2023-03-20T06:10:31.280Z,8.60
2023-03-20T06:13:01.013Z,8.60
2023-03-20T06:15:28.622Z,8.60
2023-03-20T06:17:56.369Z,8.60
2023-03-20T06:20:23.461Z,8.60
2023-03-20T06:22:50.542Z,8.70
2023-03-20T06:25:18.156Z,8.60
2023-03-20T06:27:47.715Z,8.70
2023-03-20T06:30:15.483Z,8.70
2023-03-20T06:32:42.823Z,8.70
2023-03-20T06:35:10.057Z,8.70
2023-03-20T06:37:37.433Z,8.70
2023-03-20T06:40:05.484Z,8.70
2023-03-20T06:42:32.321Z,8.70
2023-03-20T06:44:59.088Z,8.70
2023-03-20T06:47:26.050Z,8.70
2023-03-20T06:49:52.796Z,8.70
2023-03-20T06:52:22.756Z,8.80
2023-03-20T06:54:51.181Z,8.70
2023-03-20T06:57:18.321Z,8.70
2023-03-20T06:59:45.090Z,8.80
2023-03-20T07:02:12.004Z,8.80
2023-03-20T07:04:38.941Z,8.80
2023-03-20T07:07:06.073Z,8.80
2023-03-20T07:09:33.239Z,8.80
2023-03-20T07:12:00.549Z,8.80
2023-03-20T07:14:27.319Z,8.80
2023-03-20T07:16:56.297Z,8.80
2023-03-20T07:19:23.309Z,8.90
2023-03-20T07:21:51.517Z,8.90
2023-03-20T07:24:18.244Z,9.00
2023-03-20T07:26:45.801Z,9.00
2023-03-20T07:29:13.332Z,9.00
2023-03-20T07:31:40.226Z,9.00
2023-03-20T07:34:06.985Z,9.00
2023-03-20T07:36:33.717Z,9.00
2023-03-20T07:39:00.696Z,9.00
2023-03-20T07:41:27.445Z,9.00
2023-03-20T07:43:54.268Z,9.00
2023-03-20T07:46:21.164Z,9.00
2023-03-20T07:48:47.904Z,9.10
2023-03-20T07:51:14.571Z,9.10
2023-03-20T07:53:41.345Z,9.10
2023-03-20T07:56:08.622Z,9.10
2023-03-20T07:58:36.117Z,9.10
2023-03-20T08:01:03.723Z,9.10
2023-03-20T08:03:31.630Z,9.10
2023-03-20T08:05:58.456Z,9.10
2023-03-20T08:08:25.607Z,9.10
2023-03-20T08:10:52.364Z,9.10
2023-03-20T08:13:19.183Z,9.10
2023-03-20T08:15:47.184Z,9.10
2023-03-20T08:18:13.918Z,9.10
2023-03-20T08:20:40.732Z,9.00
2023-03-20T08:23:07.915Z,9.10
2023-03-20T08:25:35.168Z,9.10
2023-03-20T08:28:02.317Z,9.10
2023-03-20T08:30:29.439Z,9.10
2023-03-20T08:32:58.252Z,9.10
2023-03-20T08:35:32.909Z,9.20
2023-03-20T08:38:00.333Z,9.20
2023-03-20T08:40:27.247Z,9.20
2023-03-20T08:42:53.990Z,9.20
2023-03-20T08:45:21.743Z,9.30
2023-03-20T08:47:48.863Z,9.30
2023-03-20T08:50:16.252Z,9.30
2023-03-20T08:52:44.244Z,9.30
2023-03-20T08:55:12.134Z,9.30
2023-03-20T08:57:39.007Z,9.30
2023-03-20T09:00:07.433Z,9.30
2023-03-20T09:02:34.965Z,9.40
2023-03-20T09:05:02.433Z,9.50
2023-03-20T09:07:29.249Z,9.50
2023-03-20T09:09:55.937Z,9.60
2023-03-20T09:12:22.759Z,9.60
2023-03-20T09:14:49.543Z,9.70
2023-03-20T09:17:16.332Z,9.70
2023-03-20T09:19:44.655Z,9.80
2023-03-20T09:22:14.304Z,9.80
2023-03-20T09:24:41.759Z,9.80
2023-03-20T09:27:08.684Z,9.80
2023-03-20T09:29:35.829Z,9.80
2023-03-20T09:32:02.725Z,9.90
2023-03-20T09:34:29.575Z,9.90
2023-03-20T09:36:56.344Z,9.90
2023-03-20T09:39:23.555Z,9.90
2023-03-20T09:41:57.379Z,9.90
2023-03-20T09:44:24.403Z,10.00
2023-03-20T09:47:19.938Z,10.00
2023-03-20T09:50:12.428Z,10.00
2023-03-20T09:52:49.311Z,10.00
2023-03-20T09:55:22.263Z,10.00
2023-03-20T09:58:01.845Z,10.00
2023-03-20T10:00:31.622Z,10.10
2023-03-20T10:03:18.020Z,10.20
2023-03-20T10:05:56.216Z,10.20
2023-03-20T10:08:29.952Z,10.20
2023-03-20T10:11:16.193Z,10.20
2023-03-20T10:14:04.677Z,10.20
2023-03-20T10:16:31.413Z,10.20
2023-03-20T10:19:20.230Z,10.20
2023-03-20T10:21:50.096Z,10.20
2023-03-20T10:24:54.283Z,10.20
2023-03-20T10:27:28.209Z,10.30
2023-03-20T10:30:12.725Z,10.30
2023-03-20T10:32:56.683Z,10.30
2023-03-20T10:35:47.650Z,10.30
2023-03-20T10:38:26.665Z,10.30
2023-03-20T10:40:57.951Z,10.30
2023-03-20T10:43:39.778Z,10.30
2023-03-20T10:46:24.717Z,10.20
2023-03-20T10:49:02.885Z,10.20
2023-03-20T10:51:41.876Z,10.20
2023-03-20T10:54:39.004Z,10.20
2023-03-20T10:57:12.755Z,10.30
2023-03-20T10:59:48.964Z,10.40
2023-03-20T11:02:17.848Z,10.40
2023-03-20T11:04:44.753Z,10.40
2023-03-20T11:07:27.845Z,10.40
2023-03-20T11:10:10.475Z,10.60
2023-03-20T11:12:38.936Z,10.50
2023-03-20T11:15:29.856Z,10.60
2023-03-20T11:17:59.199Z,10.60
2023-03-20T11:20:31.881Z,10.70
2023-03-20T11:23:02.471Z,10.70
2023-03-20T11:25:36.838Z,10.70
2023-03-20T11:28:39.299Z,10.70
2023-03-20T11:31:11.875Z,10.60
2023-03-20T11:33:50.834Z,10.60
2023-03-20T11:36:28.221Z,10.60
2023-03-20T11:39:05.720Z,10.50
2023-03-20T11:41:32.828Z,10.50
2023-03-20T11:43:59.505Z,10.50
2023-03-20T11:46:26.456Z,10.60
2023-03-20T11:49:17.020Z,10.60
2023-03-20T11:51:43.777Z,10.60
2023-03-20T11:54:24.982Z,10.60
2023-03-20T11:57:01.305Z,10.50
2023-03-20T11:59:46.258Z,10.40
2023-03-20T12:02:23.605Z,10.40
2023-03-20T12:04:50.358Z,10.40
2023-03-20T12:07:23.024Z,10.40
2023-03-20T12:09:59.967Z,10.40
2023-03-20T12:12:36.517Z,10.50
2023-03-20T12:15:26.809Z,10.50
2023-03-20T12:18:05.629Z,10.60
2023-03-20T12:20:36.866Z,10.60
2023-03-20T12:23:10.393Z,10.60
2023-03-20T12:25:59.725Z,10.60
2023-03-20T12:28:47.848Z,10.60
2023-03-20T12:31:26.559Z,10.60
2023-03-20T12:34:01.839Z,10.60
2023-03-20T12:36:33.727Z,10.60
2023-03-20T12:39:04.236Z,10.50
2023-03-20T12:41:54.182Z,10.50
2023-03-20T12:44:23.637Z,10.60
2023-03-20T12:46:53.449Z,10.50
2023-03-20T12:49:56.014Z,10.60
2023-03-20T12:52:45.805Z,10.60
2023-03-20T12:55:18.166Z,10.60
2023-03-20T12:58:06.293Z,10.60
2023-03-20T13:00:42.530Z,10.60
2023-03-20T13:03:14.051Z,10.60
2023-03-20T13:05:50.307Z,10.60
2023-03-20T13:08:44.395Z,10.60
2023-03-20T13:11:35.687Z,10.60
2023-03-20T13:14:24.678Z,10.60
2023-03-20T13:17:09.921Z,10.60
2023-03-20T13:19:39.132Z,10.60
2023-03-20T13:22:41.339Z,10.60
2023-03-20T13:25:16.681Z,10.60
2023-03-20T13:28:14.036Z,10.50
2023-03-20T13:30:56.909Z,10.60
2023-03-20T13:33:33.027Z,10.60
2023-03-20T13:36:30.263Z,10.50
2023-03-20T13:39:12.909Z,10.60
2023-03-20T13:41:39.888Z,10.60
2023-03-20T13:44:10.888Z,10.60
2023-03-20T13:47:06.565Z,10.60
2023-03-20T13:49:37.485Z,10.60
2023-03-20T13:52:15.461Z,10.50
2023-03-20T13:55:00.231Z,10.60
2023-03-20T13:57:38.875Z,10.50
2023-03-20T14:00:44.225Z,10.50
2023-03-20T14:03:37.612Z,10.50
2023-03-20T14:06:23.277Z,10.50
2023-03-20T14:08:54.499Z,10.60
2023-03-20T14:11:21.284Z,10.50
2023-03-20T14:13:58.269Z,10.50
2023-03-20T14:16:28.336Z,10.50
2023-03-20T14:19:28.968Z,10.50
2023-03-20T14:21:56.964Z,10.50
2023-03-20T14:24:26.593Z,10.50
2023-03-20T14:26:57.908Z,10.50
2023-03-20T14:29:31.319Z,10.50
2023-03-20T14:32:18.302Z,10.50
2023-03-20T14:34:49.339Z,10.50
2023-03-20T14:38:00.296Z,10.60
2023-03-20T14:40:31.405Z,10.50
2023-03-20T14:43:05.293Z,10.60
2023-03-20T14:45:37.512Z,10.60
2023-03-20T14:48:14.538Z,10.60
2023-03-20T14:51:00.352Z,10.60
2023-03-20T14:53:28.952Z,10.60
2023-03-20T14:55:55.640Z,10.60
2023-03-20T14:58:43.522Z,10.60
2023-03-20T15:01:25.122Z,10.60
2023-03-20T15:04:06.907Z,10.60
2023-03-20T15:06:34.616Z,10.70
2023-03-20T15:09:10.576Z,10.70
2023-03-20T15:11:38.127Z,10.60
2023-03-20T15:14:08.140Z,10.70
2023-03-20T15:16:37.474Z,10.60
2023-03-20T15:19:20.691Z,10.70
2023-03-20T15:21:48.642Z,10.70
2023-03-20T15:24:29.456Z,10.70
2023-03-20T15:26:59.614Z,10.70
2023-03-20T15:29:27.217Z,10.70
2023-03-20T15:32:13.844Z,10.70
2023-03-20T15:34:42.609Z,10.70
2023-03-20T15:37:21.934Z,10.70
2023-03-20T15:39:52.191Z,10.70
2023-03-20T15:42:25.190Z,10.70
2023-03-20T15:44:54.353Z,10.70
2023-03-20T15:47:23.580Z,10.70
2023-03-20T15:49:54.676Z,10.70
2023-03-20T15:52:36.167Z,10.70
2023-03-20T15:55:24.183Z,10.70
2023-03-20T15:57:53.992Z,10.70
2023-03-20T16:00:32.025Z,10.70
2023-03-20T16:03:06.945Z,10.70
2023-03-20T16:05:35.722Z,10.70
2023-03-20T16:08:15.828Z,10.70
2023-03-20T16:10:43.631Z,10.70
2023-03-20T16:13:17.125Z,10.70
2023-03-20T16:15:44.657Z,10.70
2023-03-20T16:18:16.522Z,10.60
2023-03-20T16:20:58.572Z,10.60
2023-03-20T16:23:44.580Z,10.70
2023-03-20T16:26:17.808Z,10.70
2023-03-20T16:28:50.988Z,10.60
2023-03-20T16:31:25.228Z,10.60
2023-03-20T16:33:52.474Z,10.60
2023-03-20T16:36:29.804Z,10.60
2023-03-20T16:38:58.056Z,10.60
2023-03-20T16:41:34.256Z,10.60
2023-03-20T16:44:19.470Z,10.50
2023-03-20T16:47:03.017Z,10.50
2023-03-20T16:49:29.889Z,10.60
2023-03-20T16:52:05.468Z,10.60
2023-03-20T16:54:36.156Z,10.50
2023-03-20T16:57:06.335Z,10.60
2023-03-20T16:59:33.168Z,10.60
2023-03-20T17:02:01.663Z,10.50
2023-03-20T17:04:36.666Z,10.60
2023-03-20T17:07:07.768Z,10.50
2023-03-20T17:09:34.485Z,10.60
2023-03-20T17:12:02.081Z,10.60
2023-03-20T17:14:29.176Z,10.50
2023-03-20T17:16:59.363Z,10.50
2023-03-20T17:19:26.218Z,10.50
2023-03-20T17:21:53.067Z,10.50
2023-03-20T17:24:19.875Z,10.50
2023-03-20T17:26:53.336Z,10.50
2023-03-20T17:29:20.322Z,10.60
2023-03-20T17:31:47.166Z,10.50
2023-03-20T17:34:14.977Z,10.60
2023-03-20T17:36:42.020Z,10.50
2023-03-20T17:39:17.169Z,10.60
2023-03-20T17:41:43.987Z,10.50
2023-03-20T17:44:10.919Z,10.50
2023-03-20T17:46:50.030Z,10.50
2023-03-20T17:49:26.919Z,10.50
2023-03-20T17:51:54.680Z,10.50
2023-03-20T17:54:21.553Z,10.50
2023-03-20T17:56:48.279Z,10.50
2023-03-20T17:59:15.552Z,10.50
2023-03-20T18:01:42.853Z,10.50
2023-03-20T18:04:09.612Z,10.50
2023-03-20T18:06:37.004Z,10.50
2023-03-20T18:09:04.431Z,10.50
2023-03-20T18:11:31.608Z,10.50
2023-03-20T18:13:59.762Z,10.50
2023-03-20T18:16:27.436Z,10.50
2023-03-20T18:18:54.569Z,10.50
2023-03-20T18:21:21.592Z,10.50
2023-03-20T18:23:48.539Z,10.50
2023-03-20T18:26:27.439Z,10.50
2023-03-20T18:28:55.585Z,10.50
2023-03-20T18:31:22.984Z,10.50
2023-03-20T18:33:51.898Z,10.50
2023-03-20T18:36:22.287Z,10.50
2023-03-20T18:38:50.023Z,10.50
2023-03-20T18:41:17.144Z,10.60
2023-03-20T18:43:44.633Z,10.60
2023-03-20T18:46:16.705Z,10.50
2023-03-20T18:48:43.792Z,10.50
2023-03-20T18:51:11.163Z,10.50
2023-03-20T18:53:38.674Z,10.50
2023-03-20T18:56:12.780Z,10.50
2023-03-20T18:58:39.550Z,10.50
2023-03-20T19:01:06.662Z,10.50
2023-03-20T19:03:39.167Z,10.50
2023-03-20T19:06:10.332Z,10.50
2023-03-20T19:08:38.758Z,10.50
2023-03-20T19:11:05.889Z,10.50
2023-03-20T19:13:32.640Z,10.50
2023-03-20T19:15:59.715Z,10.50
2023-03-20T19:18:27.148Z,10.50
2023-03-20T19:20:56.147Z,10.50
2023-03-20T19:23:25.765Z,10.50
2023-03-20T19:25:55.120Z,10.50
2023-03-20T19:28:38.868Z,10.50
2023-03-20T19:31:07.967Z,10.50
2023-03-20T19:33:35.390Z,10.50
2023-03-20T19:36:04.328Z,10.50
2023-03-20T19:38:32.731Z,10.50
2023-03-20T19:41:00.285Z,10.50
2023-03-20T19:43:29.024Z,10.50
2023-03-20T19:45:58.856Z,10.50
2023-03-20T19:48:43.262Z,10.60
2023-03-20T19:51:24.291Z,10.60
2023-03-20T19:53:51.119Z,10.60
2023-03-20T19:56:20.476Z,10.50
2023-03-20T19:58:48.025Z,10.60
2023-03-20T20:01:20.637Z,10.60
2023-03-20T20:03:49.608Z,10.60
2023-03-20T20:06:16.705Z,10.60
2023-03-20T20:08:48.375Z,10.50
2023-03-20T20:11:17.541Z,10.50
2023-03-20T20:16:32.736Z,10.50
2023-03-20T20:18:59.562Z,10.50
2023-03-20T20:24:15.117Z,10.60
2023-03-20T20:26:53.461Z,10.50
2023-03-20T20:29:22.441Z,10.50
2023-03-20T20:31:49.212Z,10.60
2023-03-20T20:39:50.617Z,10.60
2023-03-20T20:42:18.221Z,10.50
2023-03-20T20:44:45.270Z,10.60
2023-03-20T20:47:12.968Z,10.50
2023-03-20T20:49:39.767Z,10.60
2023-03-20T20:52:07.602Z,10.50
2023-03-20T20:54:34.917Z,10.50
2023-03-20T20:57:02.558Z,10.50
2023-03-20T20:59:29.839Z,10.50
2023-03-20T21:01:56.805Z,10.60
2023-03-20T21:04:24.741Z,10.50
2023-03-20T21:07:08.541Z,10.60
2023-03-20T21:09:36.193Z,10.60
2023-03-20T21:12:03.616Z,10.60
2023-03-20T21:14:30.819Z,10.60
2023-03-20T21:17:01.112Z,10.60
2023-03-20T21:19:34.805Z,10.60
2023-03-20T21:22:01.944Z,10.50
2023-03-20T21:24:33.152Z,10.50
2023-03-20T21:27:00.634Z,10.60
2023-03-20T21:29:27.721Z,10.50
2023-03-20T21:31:54.535Z,10.50
2023-03-20T21:34:21.373Z,10.50
2023-03-20T21:36:49.227Z,10.60
2023-03-20T21:39:17.388Z,10.50
2023-03-20T21:41:44.603Z,10.50
2023-03-20T21:44:17.187Z,10.60
2023-03-20T21:47:39.844Z,10.50
2023-03-20T21:56:02.573Z,10.50
2023-03-20T21:58:39.667Z,10.50
2023-03-20T22:01:39.313Z,10.50
2023-03-20T22:04:06.430Z,10.40
2023-03-20T22:17:58.838Z,10.40
2023-03-20T22:20:59.035Z,10.40
2023-03-20T22:29:32.415Z,10.40
2023-03-20T22:32:38.527Z,10.40
2023-03-20T22:35:15.773Z,10.40
2023-03-20T22:45:38.369Z,10.40
2023-03-20T22:48:12.342Z,10.40
2023-03-20T22:50:40.283Z,10.40
2023-03-20T22:53:07.671Z,10.40
2023-03-20T22:55:34.455Z,10.40
2023-03-20T22:58:07.412Z,10.40
2023-03-20T23:00:35.390Z,10.40
2023-03-20T23:03:17.243Z,10.40
2023-03-20T23:05:50.143Z,10.40
2023-03-20T23:08:17.740Z,10.40
2023-03-20T23:10:47.767Z,10.40
2023-03-20T23:13:15.561Z,10.40
2023-03-20T23:15:44.749Z,10.40
2023-03-20T23:18:12.407Z,10.40
2023-03-20T23:20:40.301Z,10.50
2023-03-20T23:23:07.078Z,10.50
2023-03-20T23:25:39.238Z,10.50
2023-03-20T23:28:08.638Z,10.50
2023-03-20T23:30:46.756Z,10.40
2023-03-20T23:33:18.508Z,10.50
2023-03-20T23:35:45.227Z,10.40
2023-03-20T23:38:11.999Z,10.50
2023-03-20T23:40:38.940Z,10.40
2023-03-20T23:43:05.947Z,10.50
2023-03-20T23:45:32.692Z,10.50
2023-03-20T23:47:59.548Z,10.50
2023-03-20T23:50:33.985Z,10.50
2023-03-20T23:53:19.109Z,10.50
2023-03-20T23:55:48.017Z,10.40
2023-03-20T23:58:15.657Z,10.40
